createdAt,value
2019-03-27T00:00:31.615Z,6.42
2019-03-27T00:01:31.606Z,6.36
2019-03-27T00:02:31.603Z,6.24
2019-03-27T00:03:31.604Z,6.28
2019-03-27T00:04:31.618Z,6.28
2019-03-27T00:05:31.586Z,6.22
2019-03-27T00:06:31.593Z,6.14
2019-03-27T00:07:31.588Z,6.14
2019-03-27T00:08:31.581Z,6.04
2019-03-27T00:09:31.559Z,6.02
2019-03-27T00:10:31.565Z,6.04
2019-03-27T00:11:31.582Z,5.97
2019-03-27T00:12:31.554Z,6.01
2019-03-27T00:13:31.541Z,5.99
2019-03-27T00:14:31.524Z,5.89
2019-03-27T00:15:31.527Z,5.84
2019-03-27T00:16:31.531Z,5.84
2019-03-27T00:17:31.723Z,5.99
2019-03-27T00:18:31.711Z,5.94
2019-03-27T00:19:31.711Z,5.97
2019-03-27T00:20:31.498Z,6.07
2019-03-27T00:21:31.511Z,6.05
2019-03-27T00:22:31.484Z,6.02
2019-03-27T00:23:31.488Z,6.05
2019-03-27T00:24:31.462Z,6.04
2019-03-27T00:25:31.674Z,6.07
2019-03-27T00:26:31.464Z,6.04
2019-03-27T00:27:31.460Z,6.04
2019-03-27T00:28:31.440Z,6.11
2019-03-27T00:29:31.442Z,6.09
2019-03-27T00:30:31.422Z,6.19
2019-03-27T00:31:31.415Z,6.19
2019-03-27T00:32:31.417Z,6.17
2019-03-27T00:33:31.609Z,6.22
2019-03-27T00:34:31.407Z,6.14
2019-03-27T00:35:31.392Z,6.17
2019-03-27T00:36:31.384Z,6.20
2019-03-27T00:37:31.395Z,6.19
2019-03-27T00:38:31.581Z,6.17
2019-03-27T00:39:31.583Z,6.20
2019-03-27T00:40:31.376Z,6.19
2019-03-27T00:41:31.356Z,6.19
2019-03-27T00:42:31.352Z,6.27
2019-03-27T00:43:31.552Z,6.14
2019-03-27T00:44:31.341Z,6.26
2019-03-27T00:45:31.326Z,6.20
2019-03-27T00:46:31.323Z,6.27
2019-03-27T00:47:31.348Z,6.26
2019-03-27T00:48:31.323Z,6.27
2019-03-27T00:49:31.507Z,6.26
2019-03-27T00:50:31.330Z,6.30
2019-03-27T00:51:31.290Z,6.20
2019-03-27T00:52:31.288Z,6.22
2019-03-27T00:53:31.293Z,6.17
2019-03-27T00:54:31.271Z,6.20
2019-03-27T00:55:31.285Z,6.20
2019-03-27T00:56:31.269Z,6.17
2019-03-27T00:57:31.251Z,6.07
2019-03-27T00:58:31.274Z,6.14
2019-03-27T00:59:31.446Z,6.17
2019-03-27T01:00:31.449Z,6.20
2019-03-27T01:01:31.440Z,6.20
2019-03-27T01:02:31.227Z,6.20
2019-03-27T01:03:31.212Z,6.09
2019-03-27T01:04:31.225Z,6.14
2019-03-27T01:05:31.230Z,6.14
2019-03-27T01:06:31.208Z,6.17
2019-03-27T01:07:31.186Z,6.22
2019-03-27T01:08:31.201Z,6.22
2019-03-27T01:09:31.179Z,6.16
2019-03-27T01:10:31.271Z,6.17
2019-03-27T01:11:31.162Z,6.26
2019-03-27T01:12:31.161Z,6.24
2019-03-27T01:13:31.153Z,6.22
2019-03-27T01:14:31.159Z,6.24
2019-03-27T01:15:39.848Z,6.27
2019-03-27T01:16:31.142Z,6.24
2019-03-27T01:17:31.128Z,6.24
2019-03-27T01:18:31.121Z,6.19
2019-03-27T01:19:31.116Z,6.19
2019-03-27T01:20:31.127Z,6.19
2019-03-27T01:21:31.098Z,6.22
2019-03-27T01:22:31.098Z,6.17
2019-03-27T01:23:31.097Z,6.19
2019-03-27T01:24:31.098Z,6.20
2019-03-27T01:25:31.106Z,6.20
2019-03-27T01:26:31.072Z,6.19
2019-03-27T01:27:31.065Z,6.12
2019-03-27T01:28:31.086Z,6.12
2019-03-27T01:29:31.051Z,6.11
2019-03-27T01:30:31.075Z,6.12
2019-03-27T01:31:31.246Z,6.11
2019-03-27T01:32:31.029Z,6.19
2019-03-27T01:33:31.023Z,6.27
2019-03-27T01:34:31.024Z,6.19
2019-03-27T01:35:31.012Z,6.22
2019-03-27T01:36:31.210Z,6.17
2019-03-27T01:37:31.011Z,6.19
2019-03-27T01:38:31.202Z,6.14
2019-03-27T01:39:30.991Z,6.20
2019-03-27T01:40:31.185Z,6.17
2019-03-27T01:41:30.973Z,6.19
2019-03-27T01:42:31.167Z,6.24
2019-03-27T01:43:31.175Z,6.19
2019-03-27T01:44:31.167Z,6.26
2019-03-27T01:45:30.956Z,6.27
2019-03-27T01:46:31.172Z,6.19
2019-03-27T01:47:30.933Z,6.19
2019-03-27T01:48:30.925Z,6.26
2019-03-27T01:49:30.918Z,6.35
2019-03-27T01:50:30.916Z,6.26
2019-03-27T01:51:30.920Z,6.27
2019-03-27T01:52:31.118Z,6.48
2019-03-27T01:53:30.921Z,6.63
2019-03-27T01:54:30.889Z,6.75
2019-03-27T01:55:30.898Z,6.79
2019-03-27T01:56:31.085Z,6.85
2019-03-27T01:57:31.069Z,6.81
2019-03-27T01:58:31.065Z,6.82
2019-03-27T01:59:30.857Z,6.92
2019-03-27T02:00:30.846Z,6.96
2019-03-27T02:01:31.057Z,6.92
2019-03-27T02:02:31.047Z,6.87
2019-03-27T02:03:30.826Z,6.97
2019-03-27T02:04:30.817Z,6.88
2019-03-27T02:05:30.811Z,6.92
2019-03-27T02:06:30.823Z,6.89
2019-03-27T02:07:30.830Z,6.82
2019-03-27T02:08:30.802Z,6.84
2019-03-27T02:09:30.786Z,6.92
2019-03-27T02:10:30.807Z,6.87
2019-03-27T02:11:31.001Z,6.92
2019-03-27T02:12:30.773Z,6.81
2019-03-27T02:13:30.788Z,6.93
2019-03-27T02:14:30.772Z,6.85
2019-03-27T02:15:30.972Z,6.84
2019-03-27T02:16:30.745Z,6.87
2019-03-27T02:17:30.743Z,6.88
2019-03-27T02:18:30.928Z,6.87
2019-03-27T02:19:30.748Z,6.89
2019-03-27T02:20:30.713Z,6.89
2019-03-27T02:21:30.905Z,6.85
2019-03-27T02:22:30.703Z,6.95
2019-03-27T02:23:30.691Z,6.89
2019-03-27T02:24:30.761Z,6.87
2019-03-27T02:25:30.685Z,6.92
2019-03-27T02:26:30.673Z,6.93
2019-03-27T02:27:30.678Z,6.89
2019-03-27T02:28:30.677Z,6.95
2019-03-27T02:29:30.651Z,6.87
2019-03-27T02:30:30.646Z,6.89
2019-03-27T02:31:30.637Z,6.87
2019-03-27T02:32:30.642Z,6.84
2019-03-27T02:33:30.640Z,6.82
2019-03-27T02:34:30.835Z,6.84
2019-03-27T02:35:30.630Z,6.79
2019-03-27T02:36:30.610Z,6.84
2019-03-27T02:37:30.805Z,6.81
2019-03-27T02:38:30.601Z,6.78
2019-03-27T02:39:30.789Z,6.72
2019-03-27T02:40:30.589Z,6.75
2019-03-27T02:41:30.604Z,6.69
2019-03-27T02:42:30.573Z,6.75
2019-03-27T02:43:30.554Z,6.56
2019-03-27T02:44:30.550Z,6.63
2019-03-27T02:45:30.552Z,6.62
2019-03-27T02:46:30.539Z,6.51
2019-03-27T02:47:30.532Z,6.49
2019-03-27T02:48:30.552Z,6.51
2019-03-27T02:49:30.518Z,6.49
2019-03-27T02:50:30.518Z,6.51
2019-03-27T02:51:30.533Z,6.45
2019-03-27T02:52:30.521Z,6.39
2019-03-27T02:53:30.504Z,6.35
2019-03-27T02:54:30.495Z,6.31
2019-03-27T02:55:30.474Z,6.20
2019-03-27T02:56:30.677Z,6.31
2019-03-27T02:57:30.462Z,6.28
2019-03-27T02:58:30.661Z,6.16
2019-03-27T02:59:30.454Z,6.12
2019-03-27T03:00:30.447Z,6.01
2019-03-27T03:01:30.671Z,6.01
2019-03-27T03:02:30.641Z,5.86
2019-03-27T03:03:30.467Z,5.71
2019-03-27T03:04:30.647Z,5.54
2019-03-27T03:05:30.422Z,5.53
2019-03-27T03:06:30.421Z,5.36
2019-03-27T03:07:30.396Z,5.33
2019-03-27T03:08:30.388Z,5.28
2019-03-27T03:09:30.587Z,5.14
2019-03-27T03:10:30.380Z,5.02
2019-03-27T03:11:30.368Z,4.94
2019-03-27T03:12:30.390Z,4.82
2019-03-27T03:13:30.367Z,4.67
2019-03-27T03:14:30.563Z,4.67
2019-03-27T03:15:30.552Z,4.67
2019-03-27T03:16:41.972Z,4.56
2019-03-27T03:17:30.335Z,4.49
2019-03-27T03:18:30.334Z,4.48
2019-03-27T03:19:30.324Z,4.42
2019-03-27T03:20:30.323Z,4.37
2019-03-27T03:21:30.312Z,4.40
2019-03-27T03:22:30.294Z,4.26
2019-03-27T03:23:30.509Z,4.35
2019-03-27T03:24:30.286Z,4.24
2019-03-27T03:25:30.285Z,4.20
2019-03-27T03:26:30.464Z,4.24
2019-03-27T03:27:30.266Z,4.17
2019-03-27T03:28:30.264Z,4.19
2019-03-27T03:29:30.245Z,4.17
2019-03-27T03:30:30.253Z,4.20
2019-03-27T03:31:30.267Z,4.17
2019-03-27T03:32:30.222Z,4.14
2019-03-27T03:33:30.221Z,4.20
2019-03-27T03:34:30.217Z,4.12
2019-03-27T03:35:30.218Z,4.14
2019-03-27T03:36:30.198Z,4.13
2019-03-27T03:37:30.186Z,4.13
2019-03-27T03:38:30.184Z,4.04
2019-03-27T03:39:30.171Z,3.92
2019-03-27T03:40:30.171Z,3.91
2019-03-27T03:41:30.157Z,3.77
2019-03-27T03:42:30.158Z,3.80
2019-03-27T03:43:30.378Z,3.69
2019-03-27T03:44:30.155Z,3.66
2019-03-27T03:45:30.137Z,3.78
2019-03-27T03:46:30.130Z,3.68
2019-03-27T03:47:30.135Z,3.80
2019-03-27T03:48:30.312Z,3.76
2019-03-27T03:49:30.323Z,3.77
2019-03-27T03:50:30.098Z,3.69
2019-03-27T03:51:30.102Z,3.77
2019-03-27T03:52:30.080Z,3.73
2019-03-27T03:53:30.075Z,3.78
2019-03-27T03:54:30.072Z,3.60
2019-03-27T03:55:30.063Z,3.69
2019-03-27T03:56:30.252Z,3.74
2019-03-27T03:57:30.068Z,3.70
2019-03-27T03:58:30.053Z,3.68
2019-03-27T03:59:30.253Z,3.69
2019-03-27T04:00:30.190Z,3.69
2019-03-27T04:01:30.013Z,3.66
2019-03-27T04:02:30.003Z,3.62
2019-03-27T04:03:30.000Z,3.74
2019-03-27T04:04:30.000Z,3.81
2019-03-27T04:05:30.028Z,3.74
2019-03-27T04:06:29.980Z,3.77
2019-03-27T04:07:29.983Z,3.86
2019-03-27T04:08:29.971Z,3.83
2019-03-27T04:09:29.964Z,3.86
2019-03-27T04:10:29.967Z,3.81
2019-03-27T04:11:29.949Z,3.77
2019-03-27T04:12:29.936Z,3.80
2019-03-27T04:13:29.933Z,3.78
2019-03-27T04:14:30.122Z,3.83
2019-03-27T04:15:29.915Z,3.81
2019-03-27T04:16:29.911Z,3.76
2019-03-27T04:17:29.895Z,3.77
2019-03-27T04:18:29.887Z,3.87
2019-03-27T04:19:29.883Z,3.78
2019-03-27T04:20:29.877Z,3.78
2019-03-27T04:21:29.869Z,3.84
2019-03-27T04:22:30.074Z,3.94
2019-03-27T04:23:30.072Z,3.95
2019-03-27T04:24:29.844Z,3.96
2019-03-27T04:25:30.063Z,4.05
2019-03-27T04:26:33.390Z,4.10
2019-03-27T04:27:29.825Z,4.13
2019-03-27T04:28:29.820Z,4.14
2019-03-27T04:29:30.010Z,4.13
2019-03-27T04:30:29.800Z,4.08
2019-03-27T04:31:29.792Z,4.13
2019-03-27T04:32:29.787Z,4.16
2019-03-27T04:33:29.779Z,4.24
2019-03-27T04:34:29.976Z,4.19
2019-03-27T04:35:29.770Z,4.28
2019-03-27T04:36:29.959Z,4.32
2019-03-27T04:37:29.764Z,4.34
2019-03-27T04:38:29.742Z,4.41
2019-03-27T04:39:29.727Z,4.48
2019-03-27T04:40:29.730Z,4.45
2019-03-27T04:41:29.725Z,4.49
2019-03-27T04:42:29.913Z,4.49
2019-03-27T04:43:29.717Z,4.53
2019-03-27T04:44:29.700Z,4.66
2019-03-27T04:45:29.694Z,4.58
2019-03-27T04:46:29.676Z,4.71
2019-03-27T04:47:32.339Z,4.71
2019-03-27T04:48:29.685Z,4.74
2019-03-27T04:49:29.672Z,4.80
2019-03-27T04:50:29.652Z,4.89
2019-03-27T04:51:29.857Z,4.78
2019-03-27T04:52:29.642Z,4.90
2019-03-27T04:53:29.640Z,4.94
2019-03-27T04:54:29.824Z,4.78
2019-03-27T04:55:29.613Z,4.82
2019-03-27T04:56:29.618Z,4.89
2019-03-27T04:57:29.804Z,4.86
2019-03-27T04:58:29.800Z,4.96
2019-03-27T04:59:29.583Z,4.94
2019-03-27T05:00:29.783Z,5.02
2019-03-27T05:01:29.582Z,4.99
2019-03-27T05:02:29.573Z,5.07
2019-03-27T05:03:29.551Z,5.12
2019-03-27T05:04:29.563Z,4.99
2019-03-27T05:05:29.557Z,5.07
2019-03-27T05:06:29.535Z,5.10
2019-03-27T05:07:29.528Z,5.05
2019-03-27T05:08:29.739Z,5.08
2019-03-27T05:09:29.517Z,5.02
2019-03-27T05:10:29.511Z,5.02
2019-03-27T05:11:29.508Z,5.05
2019-03-27T05:12:29.501Z,5.08
2019-03-27T05:13:29.477Z,5.11
2019-03-27T05:14:29.474Z,5.11
2019-03-27T05:15:29.467Z,5.11
2019-03-27T05:16:29.474Z,5.07
2019-03-27T05:17:29.485Z,5.04
2019-03-27T05:18:29.445Z,5.04
2019-03-27T05:19:29.442Z,5.07
2019-03-27T05:20:29.436Z,4.96
2019-03-27T05:21:29.429Z,5.02
2019-03-27T05:22:29.420Z,4.94
2019-03-27T05:23:29.440Z,4.96
2019-03-27T05:24:29.415Z,4.87
2019-03-27T05:25:29.409Z,4.89
2019-03-27T05:26:29.406Z,4.87
2019-03-27T05:27:29.402Z,4.90
2019-03-27T05:28:29.379Z,4.89
2019-03-27T05:29:29.364Z,4.92
2019-03-27T05:30:29.375Z,4.90
2019-03-27T05:31:29.361Z,4.90
2019-03-27T05:32:29.553Z,4.89
2019-03-27T05:33:32.582Z,4.86
2019-03-27T05:34:29.341Z,4.89
2019-03-27T05:35:29.335Z,4.84
2019-03-27T05:36:29.327Z,4.89
2019-03-27T05:37:29.312Z,4.96
2019-03-27T05:38:29.324Z,4.86
2019-03-27T05:39:29.292Z,4.86
2019-03-27T05:40:29.326Z,4.89
2019-03-27T05:41:29.298Z,4.94
2019-03-27T05:42:29.278Z,4.87
2019-03-27T05:43:29.266Z,4.87
2019-03-27T05:44:29.276Z,4.94
2019-03-27T05:45:29.257Z,4.90
2019-03-27T05:46:29.252Z,4.92
2019-03-27T05:47:29.237Z,4.90
2019-03-27T05:48:29.244Z,4.89
2019-03-27T05:49:29.245Z,5.05
2019-03-27T05:50:29.425Z,4.87
2019-03-27T05:51:29.224Z,4.86
2019-03-27T05:52:29.203Z,4.92
2019-03-27T05:53:29.256Z,4.86
2019-03-27T05:54:29.191Z,4.92
2019-03-27T05:55:29.390Z,4.87
2019-03-27T05:56:29.180Z,4.87
2019-03-27T05:57:29.185Z,4.89
2019-03-27T05:58:29.362Z,4.87
2019-03-27T05:59:29.363Z,4.89
2019-03-27T06:00:29.157Z,4.89
2019-03-27T06:01:29.357Z,4.90
2019-03-27T06:02:29.157Z,4.90
2019-03-27T06:03:29.125Z,4.92
2019-03-27T06:04:29.120Z,4.94
2019-03-27T06:05:29.145Z,4.93
2019-03-27T06:06:29.127Z,4.93
2019-03-27T06:07:29.117Z,5.00
2019-03-27T06:08:29.101Z,4.94
2019-03-27T06:09:29.100Z,5.11
2019-03-27T06:10:29.133Z,5.07
2019-03-27T06:11:29.107Z,5.11
2019-03-27T06:12:29.099Z,5.14
2019-03-27T06:13:29.082Z,5.12
2019-03-27T06:14:29.070Z,5.10
2019-03-27T06:15:29.273Z,5.25
2019-03-27T06:16:29.073Z,5.25
2019-03-27T06:17:29.246Z,5.33
2019-03-27T06:18:29.288Z,5.38
2019-03-27T06:19:29.021Z,5.36
2019-03-27T06:20:29.005Z,5.38
2019-03-27T06:21:28.998Z,5.48
2019-03-27T06:22:29.014Z,5.56
2019-03-27T06:23:29.008Z,5.54
2019-03-27T06:24:28.988Z,5.65
2019-03-27T06:25:28.980Z,5.65
2019-03-27T06:26:29.171Z,5.69
2019-03-27T06:27:28.957Z,5.79
2019-03-27T06:28:29.156Z,5.82
2019-03-27T06:29:28.945Z,5.84
2019-03-27T06:30:28.936Z,5.84
2019-03-27T06:31:28.934Z,5.90
2019-03-27T06:32:28.924Z,5.89
2019-03-27T06:33:29.123Z,5.91
2019-03-27T06:34:28.911Z,6.05
2019-03-27T06:35:28.908Z,6.02
2019-03-27T06:36:28.894Z,6.01
2019-03-27T06:37:29.120Z,6.11
2019-03-27T06:38:28.894Z,6.02
2019-03-27T06:39:28.873Z,5.99
2019-03-27T06:40:29.077Z,6.04
2019-03-27T06:41:28.865Z,6.02
2019-03-27T06:42:28.851Z,5.99
2019-03-27T06:43:28.847Z,6.02
2019-03-27T06:44:28.839Z,6.04
2019-03-27T06:45:28.841Z,6.04
2019-03-27T06:46:28.840Z,6.04
2019-03-27T06:47:28.818Z,6.07
2019-03-27T06:48:28.815Z,6.08
2019-03-27T06:49:28.809Z,6.19
2019-03-27T06:50:28.797Z,6.14
2019-03-27T06:51:39.402Z,6.22
2019-03-27T06:52:28.783Z,6.17
2019-03-27T06:53:28.778Z,6.26
2019-03-27T06:54:28.771Z,6.27
2019-03-27T06:55:28.770Z,6.20
2019-03-27T06:56:28.757Z,6.22
2019-03-27T06:57:28.750Z,6.22
2019-03-27T06:58:28.949Z,6.24
2019-03-27T06:59:28.737Z,6.35
2019-03-27T07:00:28.727Z,6.46
2019-03-27T07:01:28.738Z,6.44
2019-03-27T07:02:29.078Z,6.48
2019-03-27T07:03:28.708Z,6.39
2019-03-27T07:04:28.720Z,6.49
2019-03-27T07:05:28.704Z,6.48
2019-03-27T07:06:28.693Z,6.42
2019-03-27T07:07:28.691Z,6.38
2019-03-27T07:08:28.695Z,6.60
2019-03-27T07:09:28.880Z,6.64
2019-03-27T07:10:28.663Z,6.81
2019-03-27T07:11:28.662Z,6.79
2019-03-27T07:12:28.662Z,7.02
2019-03-27T07:13:28.645Z,7.14
2019-03-27T07:14:28.641Z,7.24
2019-03-27T07:15:28.829Z,7.25
2019-03-27T07:16:28.824Z,7.42
2019-03-27T07:17:28.618Z,7.53
2019-03-27T07:18:39.451Z,7.50
2019-03-27T07:19:28.617Z,7.66
2019-03-27T07:20:28.816Z,7.73
2019-03-27T07:21:28.797Z,7.79
2019-03-27T07:22:28.788Z,7.93
2019-03-27T07:23:28.578Z,7.95
2019-03-27T07:24:28.596Z,7.98
2019-03-27T07:25:28.583Z,8.05
2019-03-27T07:26:28.562Z,7.97
2019-03-27T07:27:28.768Z,8.12
2019-03-27T07:28:28.547Z,8.28
2019-03-27T07:29:28.745Z,8.34
2019-03-27T07:30:28.535Z,8.44
2019-03-27T07:31:28.733Z,8.41
2019-03-27T07:32:28.522Z,8.33
2019-03-27T07:33:28.543Z,8.24
2019-03-27T07:34:28.532Z,8.23
2019-03-27T07:35:28.524Z,8.27
2019-03-27T07:36:28.509Z,8.20
2019-03-27T07:37:28.700Z,8.30
2019-03-27T07:38:28.502Z,8.23
2019-03-27T07:39:28.479Z,8.26
2019-03-27T07:40:28.477Z,8.52
2019-03-27T07:41:28.472Z,8.45
2019-03-27T07:42:29.033Z,8.56
2019-03-27T07:43:28.469Z,8.66
2019-03-27T07:44:28.452Z,8.82
2019-03-27T07:45:28.445Z,8.78
2019-03-27T07:46:28.443Z,8.82
2019-03-27T07:47:28.440Z,9.00
2019-03-27T07:48:28.428Z,9.16
2019-03-27T07:49:28.428Z,9.25
2019-03-27T07:50:28.627Z,9.29
2019-03-27T07:51:28.440Z,9.40
2019-03-27T07:52:28.404Z,9.72
2019-03-27T07:53:28.611Z,9.84
2019-03-27T07:54:28.609Z,10.19
2019-03-27T07:55:28.406Z,9.98
2019-03-27T07:56:28.395Z,10.13
2019-03-27T07:57:28.579Z,10.25
2019-03-27T07:58:28.370Z,10.33
2019-03-27T07:59:28.590Z,10.41
2019-03-27T08:00:28.363Z,10.69
2019-03-27T08:01:28.358Z,10.96
2019-03-27T08:02:28.367Z,10.48
2019-03-27T08:03:28.374Z,10.71
2019-03-27T08:04:28.542Z,10.78
2019-03-27T08:05:28.334Z,10.69
2019-03-27T08:06:28.336Z,10.23
2019-03-27T08:07:28.341Z,10.15
2019-03-27T08:08:28.374Z,9.94
2019-03-27T08:09:28.331Z,9.83
2019-03-27T08:10:28.328Z,9.80
2019-03-27T08:11:28.342Z,10.09
2019-03-27T08:12:28.340Z,9.82
2019-03-27T08:13:28.316Z,9.64
2019-03-27T08:14:28.297Z,9.72
2019-03-27T08:15:28.301Z,9.82
2019-03-27T08:16:28.286Z,10.25
2019-03-27T08:17:28.290Z,10.25
2019-03-27T08:18:28.287Z,10.22
2019-03-27T08:19:28.281Z,10.07
2019-03-27T08:20:28.260Z,10.12
2019-03-27T08:21:30.992Z,10.35
2019-03-27T08:22:28.454Z,10.51
2019-03-27T08:23:28.255Z,10.25
2019-03-27T08:24:28.255Z,10.05
2019-03-27T08:25:28.239Z,9.95
2019-03-27T08:26:28.231Z,9.94
2019-03-27T08:27:28.430Z,10.28
2019-03-27T08:28:28.251Z,10.53
2019-03-27T08:29:28.220Z,10.59
2019-03-27T08:30:28.218Z,10.82
2019-03-27T08:31:28.229Z,11.02
2019-03-27T08:32:28.227Z,11.05
2019-03-27T08:33:28.431Z,10.93
2019-03-27T08:34:28.193Z,10.56
2019-03-27T08:35:28.418Z,10.31
2019-03-27T08:36:28.394Z,10.09
2019-03-27T08:37:28.187Z,9.82
2019-03-27T08:38:28.178Z,9.48
2019-03-27T08:39:28.169Z,9.44
2019-03-27T08:40:28.166Z,9.31
2019-03-27T08:41:28.171Z,9.89
2019-03-27T08:42:28.213Z,9.77
2019-03-27T08:43:28.151Z,9.91
2019-03-27T08:44:28.151Z,9.64
2019-03-27T08:45:28.150Z,9.51
2019-03-27T08:46:28.344Z,9.41
2019-03-27T08:47:28.148Z,9.39
2019-03-27T08:48:28.329Z,9.32
2019-03-27T08:49:28.126Z,9.32
2019-03-27T08:50:28.319Z,9.91
2019-03-27T08:51:28.317Z,10.60
2019-03-27T08:52:28.109Z,11.00
2019-03-27T08:53:28.105Z,11.29
2019-03-27T08:54:28.098Z,11.40
2019-03-27T08:55:28.297Z,11.45
2019-03-27T08:56:28.083Z,11.40
2019-03-27T08:57:28.284Z,11.19
2019-03-27T08:58:28.105Z,11.15
2019-03-27T08:59:28.084Z,11.05
2019-03-27T09:00:28.267Z,11.00
2019-03-27T09:01:28.056Z,11.12
2019-03-27T09:02:28.053Z,11.12
2019-03-27T09:03:28.252Z,10.94
2019-03-27T09:04:28.043Z,10.94
2019-03-27T09:05:28.061Z,10.89
2019-03-27T09:06:33.574Z,10.68
2019-03-27T09:07:28.034Z,10.31
2019-03-27T09:08:28.239Z,10.12
2019-03-27T09:09:28.025Z,9.94
2019-03-27T09:10:28.018Z,9.87
2019-03-27T09:11:28.038Z,9.89
2019-03-27T09:12:28.000Z,9.87
2019-03-27T09:13:28.001Z,9.91
2019-03-27T09:14:28.007Z,9.89
2019-03-27T09:15:27.998Z,9.91
2019-03-27T09:16:27.982Z,9.73
2019-03-27T09:17:27.987Z,9.61
2019-03-27T09:18:27.976Z,9.56
2019-03-27T09:19:35.500Z,9.46
2019-03-27T09:20:27.961Z,9.40
2019-03-27T09:21:28.164Z,9.39
2019-03-27T09:22:27.958Z,9.28
2019-03-27T09:23:27.945Z,9.29
2019-03-27T09:24:28.000Z,9.25
2019-03-27T09:25:27.928Z,9.31
2019-03-27T09:26:27.926Z,9.31
2019-03-27T09:27:28.153Z,9.34
2019-03-27T09:28:27.942Z,9.48
2019-03-27T09:29:27.916Z,9.46
2019-03-27T09:30:27.940Z,9.46
2019-03-27T09:31:27.908Z,9.58
2019-03-27T09:32:28.108Z,9.58
2019-03-27T09:33:28.099Z,9.74
2019-03-27T09:34:27.887Z,9.79
2019-03-27T09:35:27.907Z,9.87
2019-03-27T09:36:27.888Z,9.89
2019-03-27T09:37:27.873Z,9.95
2019-03-27T09:38:27.878Z,9.95
2019-03-27T09:39:27.865Z,10.02
2019-03-27T09:40:27.849Z,9.94
2019-03-27T09:41:27.845Z,9.99
2019-03-27T09:42:27.847Z,10.15
2019-03-27T09:43:27.849Z,10.09
2019-03-27T09:44:27.840Z,10.19
2019-03-27T09:45:27.842Z,10.23
2019-03-27T09:46:27.827Z,10.28
2019-03-27T09:47:27.817Z,10.19
2019-03-27T09:48:27.823Z,10.12
2019-03-27T09:49:28.010Z,10.04
2019-03-27T09:50:27.802Z,10.02
2019-03-27T09:51:27.810Z,10.09
2019-03-27T09:52:27.792Z,10.09
2019-03-27T09:53:27.797Z,10.09
2019-03-27T09:54:27.785Z,9.94
2019-03-27T09:55:27.777Z,10.04
2019-03-27T09:56:27.766Z,9.92
2019-03-27T09:57:27.761Z,9.91
2019-03-27T09:58:27.766Z,9.97
2019-03-27T09:59:27.753Z,9.89
2019-03-27T10:00:27.753Z,9.92
2019-03-27T10:01:27.757Z,9.95
2019-03-27T10:02:27.748Z,9.86
2019-03-27T10:03:27.735Z,9.86
2019-03-27T10:04:27.754Z,9.87
2019-03-27T10:05:27.721Z,9.94
2019-03-27T10:06:27.717Z,9.86
2019-03-27T10:07:27.714Z,9.86
2019-03-27T10:08:27.709Z,9.89
2019-03-27T10:09:27.917Z,9.84
2019-03-27T10:10:27.694Z,9.87
2019-03-27T10:11:27.696Z,9.82
2019-03-27T10:12:27.688Z,9.79
2019-03-27T10:13:27.679Z,9.89
2019-03-27T10:14:27.704Z,9.87
2019-03-27T10:15:27.681Z,9.89
2019-03-27T10:16:27.664Z,9.91
2019-03-27T10:17:27.680Z,9.97
2019-03-27T10:18:27.653Z,9.98
2019-03-27T10:19:27.868Z,10.04
2019-03-27T10:20:27.643Z,10.01
2019-03-27T10:21:27.637Z,10.16
2019-03-27T10:22:27.840Z,10.10
2019-03-27T10:23:27.626Z,10.09
2019-03-27T10:24:27.838Z,10.23
2019-03-27T10:25:27.614Z,10.25
2019-03-27T10:26:27.610Z,10.22
2019-03-27T10:27:27.627Z,10.30
2019-03-27T10:28:27.602Z,10.38
2019-03-27T10:29:27.608Z,10.38
2019-03-27T10:30:27.795Z,10.49
2019-03-27T10:31:27.583Z,10.46
2019-03-27T10:32:27.596Z,10.44
2019-03-27T10:33:27.577Z,10.42
2019-03-27T10:34:27.586Z,10.38
2019-03-27T10:35:27.762Z,10.33
2019-03-27T10:36:27.567Z,10.26
2019-03-27T10:37:27.765Z,10.22
2019-03-27T10:38:27.563Z,10.20
2019-03-27T10:39:27.552Z,10.05
2019-03-27T10:40:27.575Z,10.05
2019-03-27T10:41:27.551Z,9.95
2019-03-27T10:42:27.529Z,9.94
2019-03-27T10:43:27.545Z,9.91
2019-03-27T10:44:27.525Z,9.94
2019-03-27T10:45:27.512Z,9.97
2019-03-27T10:46:27.533Z,9.91
2019-03-27T10:47:27.505Z,9.86
2019-03-27T10:48:27.509Z,9.84
2019-03-27T10:49:27.490Z,9.89
2019-03-27T10:50:27.508Z,9.89
2019-03-27T10:51:27.475Z,9.95
2019-03-27T10:52:27.677Z,9.97
2019-03-27T10:53:27.775Z,9.99
2019-03-27T10:54:27.463Z,9.95
2019-03-27T10:55:27.474Z,10.10
2019-03-27T10:56:27.479Z,10.16
2019-03-27T10:57:27.453Z,10.15
2019-03-27T10:58:27.455Z,10.16
2019-03-27T10:59:27.436Z,10.17
2019-03-27T11:00:27.435Z,10.23
2019-03-27T11:01:27.657Z,10.22
2019-03-27T11:02:27.432Z,10.16
2019-03-27T11:03:27.489Z,10.22
2019-03-27T11:04:27.432Z,10.23
2019-03-27T11:05:27.413Z,10.28
2019-03-27T11:06:27.401Z,10.22
2019-03-27T11:07:27.404Z,10.31
2019-03-27T11:08:27.409Z,10.31
2019-03-27T11:09:27.387Z,10.33
2019-03-27T11:10:27.381Z,10.34
2019-03-27T11:11:27.389Z,10.44
2019-03-27T11:12:27.374Z,10.46
2019-03-27T11:13:27.579Z,10.42
2019-03-27T11:14:37.129Z,10.56
2019-03-27T11:15:27.553Z,10.49
2019-03-27T11:16:27.365Z,10.49
2019-03-27T11:17:27.372Z,10.71
2019-03-27T11:18:27.348Z,10.63
2019-03-27T11:19:27.328Z,10.59
2019-03-27T11:20:31.124Z,10.71
2019-03-27T11:21:27.337Z,10.67
2019-03-27T11:22:27.520Z,10.69
2019-03-27T11:23:27.331Z,10.64
2019-03-27T11:24:27.312Z,10.68
2019-03-27T11:25:27.347Z,10.71
2019-03-27T11:26:27.307Z,10.69
2019-03-27T11:27:27.296Z,10.71
2019-03-27T11:28:27.287Z,10.72
2019-03-27T11:29:27.485Z,10.75
2019-03-27T11:30:27.276Z,10.74
2019-03-27T11:31:27.475Z,10.78
2019-03-27T11:32:27.474Z,10.86
2019-03-27T11:33:28.925Z,10.96
2019-03-27T11:34:27.267Z,10.94
2019-03-27T11:35:27.247Z,10.97
2019-03-27T11:36:27.251Z,10.97
2019-03-27T11:37:27.237Z,10.99
2019-03-27T11:38:27.237Z,11.04
2019-03-27T11:39:27.231Z,10.93
2019-03-27T11:40:27.224Z,10.97
2019-03-27T11:41:27.459Z,11.11
2019-03-27T11:42:27.214Z,10.97
2019-03-27T11:43:27.209Z,10.97
2019-03-27T11:44:27.204Z,10.96
2019-03-27T11:45:27.217Z,11.04
2019-03-27T11:46:27.208Z,10.93
2019-03-27T11:47:27.413Z,11.04
2019-03-27T11:48:27.182Z,10.96
2019-03-27T11:49:27.185Z,11.00
2019-03-27T11:50:27.178Z,11.00
2019-03-27T11:51:27.198Z,10.94
2019-03-27T11:52:29.725Z,10.90
2019-03-27T11:53:27.171Z,10.86
2019-03-27T11:54:27.157Z,10.87
2019-03-27T11:55:27.157Z,10.86
2019-03-27T11:56:27.146Z,10.75
2019-03-27T11:57:27.153Z,10.79
2019-03-27T11:58:27.154Z,10.79
2019-03-27T11:59:27.347Z,10.84
2019-03-27T12:00:27.331Z,10.84
2019-03-27T12:01:39.216Z,10.87
2019-03-27T12:02:27.325Z,10.89
2019-03-27T12:03:27.126Z,10.84
2019-03-27T12:04:27.110Z,10.94
2019-03-27T12:05:27.306Z,10.96
2019-03-27T12:06:27.105Z,10.90
2019-03-27T12:07:27.108Z,11.02
2019-03-27T12:08:27.108Z,10.99
2019-03-27T12:09:27.085Z,10.94
2019-03-27T12:10:27.086Z,10.99
2019-03-27T12:11:27.094Z,10.99
2019-03-27T12:12:27.096Z,10.99
2019-03-27T12:13:27.069Z,10.97
2019-03-27T12:14:27.062Z,10.96
2019-03-27T12:15:27.059Z,11.00
2019-03-27T12:16:27.072Z,11.04
2019-03-27T12:17:27.056Z,11.04
2019-03-27T12:18:27.040Z,10.99
2019-03-27T12:19:27.253Z,10.96
2019-03-27T12:20:27.045Z,11.10
2019-03-27T12:21:27.046Z,11.10
2019-03-27T12:22:27.019Z,11.15
2019-03-27T12:23:27.027Z,11.15
2019-03-27T12:24:28.720Z,11.15
2019-03-27T12:25:27.014Z,11.12
2019-03-27T12:26:27.007Z,11.12
2019-03-27T12:27:26.996Z,11.15
2019-03-27T12:28:27.005Z,11.23
2019-03-27T12:29:26.991Z,11.32
2019-03-27T12:30:26.986Z,11.30
2019-03-27T12:31:26.982Z,11.36
2019-03-27T12:32:26.969Z,11.37
2019-03-27T12:33:26.978Z,11.40
2019-03-27T12:34:26.970Z,11.37
2019-03-27T12:35:26.966Z,11.33
2019-03-27T12:36:26.958Z,11.36
2019-03-27T12:37:26.959Z,11.43
2019-03-27T12:38:26.962Z,11.40
2019-03-27T12:39:26.941Z,11.43
2019-03-27T12:40:26.941Z,11.35
2019-03-27T12:41:26.933Z,11.40
2019-03-27T12:42:26.926Z,11.47
2019-03-27T12:43:26.955Z,11.52
2019-03-27T12:44:26.924Z,11.41
2019-03-27T12:45:26.928Z,11.41
2019-03-27T12:46:26.917Z,11.55
2019-03-27T12:47:26.908Z,11.51
2019-03-27T12:48:26.895Z,11.60
2019-03-27T12:49:26.906Z,11.63
2019-03-27T12:50:26.905Z,11.52
2019-03-27T12:51:26.890Z,11.54
2019-03-27T12:52:27.101Z,11.60
2019-03-27T12:53:27.088Z,11.59
2019-03-27T12:54:26.869Z,11.55
2019-03-27T12:55:26.873Z,11.51
2019-03-27T12:56:26.860Z,11.48
2019-03-27T12:57:27.064Z,11.41
2019-03-27T12:58:26.854Z,11.44
2019-03-27T12:59:26.848Z,11.51
2019-03-27T13:00:26.844Z,11.57
2019-03-27T13:01:26.855Z,11.57
2019-03-27T13:02:26.834Z,11.51
2019-03-27T13:03:26.829Z,11.59
2019-03-27T13:04:26.844Z,11.69
2019-03-27T13:05:27.062Z,11.65
2019-03-27T13:06:26.820Z,11.72
2019-03-27T13:07:26.816Z,11.70
2019-03-27T13:08:26.808Z,11.69
2019-03-27T13:09:26.825Z,11.69
2019-03-27T13:10:27.004Z,11.69
2019-03-27T13:11:26.794Z,11.62